sensor_id;sensor_type;location;lat;lon;timestamp;pressure;altitude;pressure_sealevel;temperature;humidity
84714;BME280;74938;42.658;23.248;2024-03-23T00:53:59;94026.69;;;3.59;59.03
84714;BME280;74938;42.658;23.248;2024-03-23T00:56:24;94028.16;;;3.77;57.58
84714;BME280;74938;42.658;23.248;2024-03-23T00:58:50;94025.75;;;3.84;58.56
84714;BME280;74938;42.658;23.248;2024-03-23T01:01:15;94024.63;;;3.62;57.65
84714;BME280;74938;42.658;23.248;2024-03-23T01:03:40;94021.75;;;3.73;57.52
84714;BME280;74938;42.658;23.248;2024-03-23T01:06:06;94014.47;;;3.28;57.57
84714;BME280;74938;42.658;23.248;2024-03-23T01:08:31;94013.75;;;3.68;56.35
84714;BME280;74938;42.658;23.248;2024-03-23T01:10:59;94016.31;;;3.68;59.80
84714;BME280;74938;42.658;23.248;2024-03-23T01:13:24;94014.88;;;3.58;59.13
84714;BME280;74938;42.658;23.248;2024-03-23T01:15:51;94015.94;;;3.39;60.03
84714;BME280;74938;42.658;23.248;2024-03-23T01:18:20;94011.63;;;3.39;60.26
84714;BME280;74938;42.658;23.248;2024-03-23T01:20:46;94012.97;;;3.60;60.09
84714;BME280;74938;42.658;23.248;2024-03-23T01:23:12;94004.44;;;3.35;61.50
84714;BME280;74938;42.658;23.248;2024-03-23T01:25:37;94016.06;;;3.29;58.23
84714;BME280;74938;42.658;23.248;2024-03-23T01:28:03;94004.56;;;3.25;59.22
84714;BME280;74938;42.658;23.248;2024-03-23T01:30:28;94015.84;;;3.14;59.39
84714;BME280;74938;42.658;23.248;2024-03-23T01:32:54;94012.41;;;2.98;59.37
84714;BME280;74938;42.658;23.248;2024-03-23T01:35:19;94025.81;;;2.66;61.20
84714;BME280;74938;42.658;23.248;2024-03-23T01:37:44;94019.19;;;2.73;60.47
84714;BME280;74938;42.658;23.248;2024-03-23T01:40:10;94015.38;;;2.77;59.89
84714;BME280;74938;42.658;23.248;2024-03-23T01:42:38;94021.09;;;3.05;58.57
84714;BME280;74938;42.658;23.248;2024-03-23T01:45:07;94015.16;;;2.70;59.16
84714;BME280;74938;42.658;23.248;2024-03-23T01:47:33;94012.16;;;3.09;58.21
84714;BME280;74938;42.658;23.248;2024-03-23T01:49:59;94013.91;;;3.08;57.79
84714;BME280;74938;42.658;23.248;2024-03-23T01:52:24;94018.53;;;3.05;57.89
84714;BME280;74938;42.658;23.248;2024-03-23T01:54:50;94011.81;;;2.70;58.65
84714;BME280;74938;42.658;23.248;2024-03-23T01:57:15;94008.34;;;2.79;60.16
84714;BME280;74938;42.658;23.248;2024-03-23T01:59:41;94015.69;;;3.08;58.06
84714;BME280;74938;42.658;23.248;2024-03-23T02:02:07;94020.19;;;3.22;57.71
84714;BME280;74938;42.658;23.248;2024-03-23T02:04:32;94010.78;;;3.23;58.10
84714;BME280;74938;42.658;23.248;2024-03-23T02:06:57;94015.38;;;3.11;57.37
84714;BME280;74938;42.658;23.248;2024-03-23T02:09:23;94013.56;;;3.03;57.75
84714;BME280;74938;42.658;23.248;2024-03-23T02:11:48;94018.44;;;3.23;58.70
84714;BME280;74938;42.658;23.248;2024-03-23T02:14:13;94019.34;;;3.05;58.48
84714;BME280;74938;42.658;23.248;2024-03-23T02:16:39;94021.09;;;3.13;58.54
84714;BME280;74938;42.658;23.248;2024-03-23T02:19:04;94021.09;;;3.13;59.17
84714;BME280;74938;42.658;23.248;2024-03-23T02:21:30;94018.94;;;3.26;58.53
84714;BME280;74938;42.658;23.248;2024-03-23T02:23:58;94017.53;;;2.98;59.01
84714;BME280;74938;42.658;23.248;2024-03-23T02:26:23;94017.31;;;2.83;59.25
84714;BME280;74938;42.658;23.248;2024-03-23T02:28:49;94026.69;;;2.74;60.81
84714;BME280;74938;42.658;23.248;2024-03-23T02:31:14;94023.34;;;2.82;60.59
84714;BME280;74938;42.658;23.248;2024-03-23T02:33:40;94019.97;;;2.73;60.23
84714;BME280;74938;42.658;23.248;2024-03-23T02:36:06;94013.28;;;2.72;59.53
84714;BME280;74938;42.658;23.248;2024-03-23T02:38:31;94019.69;;;2.76;60.26
84714;BME280;74938;42.658;23.248;2024-03-23T02:41:02;94015.44;;;2.59;58.92
84714;BME280;74938;42.658;23.248;2024-03-23T02:43:28;94017.97;;;2.33;60.83
84714;BME280;74938;42.658;23.248;2024-03-23T02:45:53;94009.06;;;2.63;61.17
84714;BME280;74938;42.658;23.248;2024-03-23T02:48:18;94009.56;;;2.93;58.32
84714;BME280;74938;42.658;23.248;2024-03-23T02:50:44;94016.50;;;2.83;58.60
84714;BME280;74938;42.658;23.248;2024-03-23T02:53:09;94015.38;;;2.51;59.78
84714;BME280;74938;42.658;23.248;2024-03-23T02:55:35;94003.00;;;2.90;58.04
84714;BME280;74938;42.658;23.248;2024-03-23T02:58:01;94007.63;;;2.95;57.46
84714;BME280;74938;42.658;23.248;2024-03-23T03:00:28;94012.50;;;2.80;58.65
84714;BME280;74938;42.658;23.248;2024-03-23T03:02:53;94011.81;;;3.04;58.72
84714;BME280;74938;42.658;23.248;2024-03-23T03:05:18;94009.56;;;2.93;59.61
84714;BME280;74938;42.658;23.248;2024-03-23T03:07:44;94011.63;;;2.97;58.88
84714;BME280;74938;42.658;23.248;2024-03-23T03:10:09;94014.97;;;2.98;57.81
84714;BME280;74938;42.658;23.248;2024-03-23T03:12:36;94007.66;;;3.03;57.75
84714;BME280;74938;42.658;23.248;2024-03-23T03:15:03;94014.31;;;2.96;57.81
84714;BME280;74938;42.658;23.248;2024-03-23T03:17:30;94018.97;;;2.92;59.09
84714;BME280;74938;42.658;23.248;2024-03-23T03:19:55;94016.66;;;2.81;57.87
84714;BME280;74938;42.658;23.248;2024-03-23T03:22:24;94019.41;;;2.88;57.98
84714;BME280;74938;42.658;23.248;2024-03-23T03:24:49;94016.16;;;2.77;57.29
84714;BME280;74938;42.658;23.248;2024-03-23T03:27:15;94020.19;;;2.54;58.81
84714;BME280;74938;42.658;23.248;2024-03-23T03:29:40;94015.16;;;2.70;60.75
84714;BME280;74938;42.658;23.248;2024-03-23T03:32:05;94015.25;;;2.87;58.41
84714;BME280;74938;42.658;23.248;2024-03-23T03:34:31;94019.03;;;2.74;59.56
84714;BME280;74938;42.658;23.248;2024-03-23T03:36:57;94009.78;;;2.73;59.23
84714;BME280;74938;42.658;23.248;2024-03-23T03:39:22;94016.91;;;2.44;59.56
84714;BME280;74938;42.658;23.248;2024-03-23T03:41:48;94016.88;;;2.36;60.02
84714;BME280;74938;42.658;23.248;2024-03-23T03:44:14;94017.94;;;2.07;61.10
84714;BME280;74938;42.658;23.248;2024-03-23T03:46:39;94017.47;;;2.56;61.15
84714;BME280;74938;42.658;23.248;2024-03-23T03:49:04;94018.84;;;2.42;60.00
84714;BME280;74938;42.658;23.248;2024-03-23T03:51:30;94013.66;;;2.34;60.13
84714;BME280;74938;42.658;23.248;2024-03-23T03:53:55;94021.91;;;2.10;60.69
84714;BME280;74938;42.658;23.248;2024-03-23T03:56:21;94016.47;;;2.49;60.43
84714;BME280;74938;42.658;23.248;2024-03-23T03:58:47;94015.72;;;2.13;60.70
84714;BME280;74938;42.658;23.248;2024-03-23T04:01:13;94017.50;;;1.94;60.64
84714;BME280;74938;42.658;23.248;2024-03-23T04:03:38;94021.09;;;1.84;61.39
84714;BME280;74938;42.658;23.248;2024-03-23T04:06:08;94019.34;;;1.66;62.15
84714;BME280;74938;42.658;23.248;2024-03-23T04:08:34;94018.44;;;1.93;61.95
84714;BME280;74938;42.658;23.248;2024-03-23T04:10:59;94014.00;;;2.13;61.34
84714;BME280;74938;42.658;23.248;2024-03-23T04:13:25;94013.91;;;2.23;60.35
84714;BME280;74938;42.658;23.248;2024-03-23T04:15:56;94025.66;;;1.80;61.08
84714;BME280;74938;42.658;23.248;2024-03-23T04:18:22;94030.19;;;1.41;63.47
84714;BME280;74938;42.658;23.248;2024-03-23T04:20:48;94020.34;;;1.38;63.39
84714;BME280;74938;42.658;23.248;2024-03-23T04:23:14;94028.34;;;1.96;62.48
84714;BME280;74938;42.658;23.248;2024-03-23T04:25:39;94031.69;;;1.97;61.32
84714;BME280;74938;42.658;23.248;2024-03-23T04:28:05;94032.38;;;1.81;61.90
84714;BME280;74938;42.658;23.248;2024-03-23T04:30:30;94023.31;;;2.22;61.25
84714;BME280;74938;42.658;23.248;2024-03-23T04:32:57;94026.16;;;2.01;60.70
84714;BME280;74938;42.658;23.248;2024-03-23T04:35:23;94030.22;;;2.12;60.38
84714;BME280;74938;42.658;23.248;2024-03-23T04:37:50;94020.53;;;2.16;60.62
84714;BME280;74938;42.658;23.248;2024-03-23T04:40:17;94027.53;;;2.14;60.40
84714;BME280;74938;42.658;23.248;2024-03-23T04:42:43;94038.59;;;2.40;59.53
84714;BME280;74938;42.658;23.248;2024-03-23T04:45:09;94032.41;;;2.25;59.56
84714;BME280;74938;42.658;23.248;2024-03-23T04:47:36;94039.72;;;1.84;62.64
84714;BME280;74938;42.658;23.248;2024-03-23T04:50:02;94033.38;;;1.53;64.15
84714;BME280;74938;42.658;23.248;2024-03-23T04:52:28;94037.22;;;1.57;63.70
84714;BME280;74938;42.658;23.248;2024-03-23T04:54:53;94043.34;;;1.99;63.60
84714;BME280;74938;42.658;23.248;2024-03-23T04:57:19;94046.63;;;2.09;62.14
84714;BME280;74938;42.658;23.248;2024-03-23T04:59:44;94049.03;;;1.93;63.17
84714;BME280;74938;42.658;23.248;2024-03-23T05:02:10;94035.69;;;1.64;63.22
84714;BME280;74938;42.658;23.248;2024-03-23T05:04:35;94045.53;;;1.94;62.87
84714;BME280;74938;42.658;23.248;2024-03-23T05:07:02;94041.69;;;1.90;63.07
84714;BME280;74938;42.658;23.248;2024-03-23T05:09:27;94036.25;;;2.29;61.85
84714;BME280;74938;42.658;23.248;2024-03-23T05:11:55;94029.53;;;2.28;63.04
84714;BME280;74938;42.658;23.248;2024-03-23T05:14:21;94031.97;;;2.12;64.00
84714;BME280;74938;42.658;23.248;2024-03-23T05:16:46;94042.16;;;2.12;63.48
84714;BME280;74938;42.658;23.248;2024-03-23T05:19:11;94031.41;;;2.18;63.61
84714;BME280;74938;42.658;23.248;2024-03-23T05:21:37;94033.44;;;2.58;63.11
84714;BME280;74938;42.658;23.248;2024-03-23T05:24:02;94028.50;;;2.56;62.38
84714;BME280;74938;42.658;23.248;2024-03-23T05:26:28;94024.88;;;2.67;63.30
84714;BME280;74938;42.658;23.248;2024-03-23T05:28:54;94028.50;;;2.56;63.72
84714;BME280;74938;42.658;23.248;2024-03-23T05:31:26;94020.22;;;2.62;63.35
84714;BME280;74938;42.658;23.248;2024-03-23T05:33:52;94025.97;;;2.90;62.13
84714;BME280;74938;42.658;23.248;2024-03-23T05:36:18;94032.38;;;2.94;62.56
84714;BME280;74938;42.658;23.248;2024-03-23T05:38:44;94032.16;;;2.88;62.65
84714;BME280;74938;42.658;23.248;2024-03-23T05:41:09;94024.13;;;3.08;61.32
84714;BME280;74938;42.658;23.248;2024-03-23T05:43:35;94028.44;;;3.08;62.28
84714;BME280;74938;42.658;23.248;2024-03-23T05:46:00;94023.03;;;3.19;61.64
84714;BME280;74938;42.658;23.248;2024-03-23T05:48:30;94035.63;;;3.12;62.88
84714;BME280;74938;42.658;23.248;2024-03-23T05:50:56;94034.81;;;3.12;62.56
84714;BME280;74938;42.658;23.248;2024-03-23T05:53:21;94031.13;;;3.40;62.90
84714;BME280;74938;42.658;23.248;2024-03-23T05:55:47;94024.41;;;3.47;62.29
84714;BME280;74938;42.658;23.248;2024-03-23T05:58:16;94029.84;;;3.53;62.78
84714;BME280;74938;42.658;23.248;2024-03-23T06:00:42;94033.06;;;3.55;63.72
84714;BME280;74938;42.658;23.248;2024-03-23T06:03:08;94028.47;;;3.74;63.63
84714;BME280;74938;42.658;23.248;2024-03-23T06:05:34;94033.16;;;3.95;62.61
84714;BME280;74938;42.658;23.248;2024-03-23T06:07:59;94025.47;;;4.03;62.40
84714;BME280;74938;42.658;23.248;2024-03-23T06:10:25;94027.72;;;4.31;61.36
84714;BME280;74938;42.658;23.248;2024-03-23T06:12:50;94026.41;;;4.51;62.22
84714;BME280;74938;42.658;23.248;2024-03-23T06:15:20;94026.31;;;5.08;59.71
84714;BME280;74938;42.658;23.248;2024-03-23T06:17:48;94020.88;;;6.26;56.62
84714;BME280;74938;42.658;23.248;2024-03-23T06:20:13;94011.72;;;8.64;48.99
84714;BME280;74938;42.658;23.248;2024-03-23T06:22:39;94018.63;;;10.81;42.26
84714;BME280;74938;42.658;23.248;2024-03-23T06:25:04;94019.72;;;12.90;38.52
84714;BME280;74938;42.658;23.248;2024-03-23T06:27:30;94012.47;;;14.80;34.36
84714;BME280;74938;42.658;23.248;2024-03-23T06:29:57;94011.81;;;15.94;31.27
84714;BME280;74938;42.658;23.248;2024-03-23T06:32:22;94008.13;;;16.97;29.64
84714;BME280;74938;42.658;23.248;2024-03-23T06:34:48;94012.34;;;17.54;28.82
84714;BME280;74938;42.658;23.248;2024-03-23T06:37:13;94019.84;;;17.28;28.45
84714;BME280;74938;42.658;23.248;2024-03-23T06:39:38;94018.69;;;17.58;29.26
84714;BME280;74938;42.658;23.248;2024-03-23T06:42:04;94021.81;;;18.74;26.45
84714;BME280;74938;42.658;23.248;2024-03-23T06:44:30;94027.13;;;18.79;25.99
84714;BME280;74938;42.658;23.248;2024-03-23T06:46:56;94028.69;;;19.12;26.17
84714;BME280;74938;42.658;23.248;2024-03-23T06:49:22;94015.22;;;20.45;24.57
84714;BME280;74938;42.658;23.248;2024-03-23T06:51:48;94015.75;;;20.42;23.85
84714;BME280;74938;42.658;23.248;2024-03-23T06:54:14;94026.56;;;20.96;23.32
84714;BME280;74938;42.658;23.248;2024-03-23T06:56:40;94024.47;;;20.93;22.86
84714;BME280;74938;42.658;23.248;2024-03-23T06:59:05;94023.13;;;20.55;23.83
84714;BME280;74938;42.658;23.248;2024-03-23T07:01:30;94024.44;;;19.06;24.99
84714;BME280;74938;42.658;23.248;2024-03-23T07:03:56;94019.44;;;20.66;23.79
84714;BME280;74938;42.658;23.248;2024-03-23T07:06:22;94014.88;;;21.83;22.02
84714;BME280;74938;42.658;23.248;2024-03-23T07:08:47;94018.41;;;21.59;22.13
84714;BME280;74938;42.658;23.248;2024-03-23T07:11:21;94014.88;;;21.94;22.18
84714;BME280;74938;42.658;23.248;2024-03-23T07:13:46;94015.00;;;22.33;21.20
84714;BME280;74938;42.658;23.248;2024-03-23T07:16:13;94013.88;;;22.88;21.50
84714;BME280;74938;42.658;23.248;2024-03-23T07:18:38;94008.38;;;22.84;19.95
84714;BME280;74938;42.658;23.248;2024-03-23T07:21:04;94010.91;;;23.00;20.58
84714;BME280;74938;42.658;23.248;2024-03-23T07:23:31;94008.03;;;23.25;20.41
84714;BME280;74938;42.658;23.248;2024-03-23T07:25:57;94005.88;;;22.59;21.05
84714;BME280;74938;42.658;23.248;2024-03-23T07:28:23;94005.78;;;22.74;20.27
84714;BME280;74938;42.658;23.248;2024-03-23T07:30:48;94000.44;;;22.45;20.63
84714;BME280;74938;42.658;23.248;2024-03-23T07:33:13;94008.88;;;23.49;20.17
84714;BME280;74938;42.658;23.248;2024-03-23T07:35:39;94003.97;;;23.09;20.41
84714;BME280;74938;42.658;23.248;2024-03-23T07:38:04;94002.00;;;22.90;20.32
84714;BME280;74938;42.658;23.248;2024-03-23T07:40:31;94003.22;;;23.37;19.81
84714;BME280;74938;42.658;23.248;2024-03-23T07:42:56;93997.22;;;24.27;18.95
84714;BME280;74938;42.658;23.248;2024-03-23T07:45:21;93993.34;;;23.19;20.28
84714;BME280;74938;42.658;23.248;2024-03-23T07:47:47;93993.34;;;23.19;20.17
84714;BME280;74938;42.658;23.248;2024-03-23T07:50:12;93998.06;;;22.88;20.14
84714;BME280;74938;42.658;23.248;2024-03-23T07:52:38;93992.31;;;22.37;21.34
84714;BME280;74938;42.658;23.248;2024-03-23T07:55:03;93982.28;;;22.39;21.73
84714;BME280;74938;42.658;23.248;2024-03-23T07:57:29;93989.44;;;22.72;21.24
84714;BME280;74938;42.658;23.248;2024-03-23T07:59:54;93991.09;;;20.73;22.97
84714;BME280;74938;42.658;23.248;2024-03-23T08:02:19;93992.41;;;18.35;25.50
84714;BME280;74938;42.658;23.248;2024-03-23T08:04:46;93995.50;;;18.91;25.57
84714;BME280;74938;42.658;23.248;2024-03-23T08:07:11;93987.03;;;17.76;27.30
84714;BME280;74938;42.658;23.248;2024-03-23T08:09:37;93984.22;;;16.55;28.90
84714;BME280;74938;42.658;23.248;2024-03-23T08:12:02;93984.13;;;16.79;29.61
84714;BME280;74938;42.658;23.248;2024-03-23T08:14:28;93977.66;;;16.08;29.97
84714;BME280;74938;42.658;23.248;2024-03-23T08:16:54;93978.06;;;15.24;31.22
84714;BME280;74938;42.658;23.248;2024-03-23T08:19:20;93982.00;;;15.62;31.49
84714;BME280;74938;42.658;23.248;2024-03-23T08:21:45;93973.00;;;15.06;31.13
84714;BME280;74938;42.658;23.248;2024-03-23T08:24:11;93973.41;;;15.38;32.49
84714;BME280;74938;42.658;23.248;2024-03-23T08:26:36;93973.41;;;15.26;32.52
84714;BME280;74938;42.658;23.248;2024-03-23T08:29:03;93963.59;;;15.17;31.68
84714;BME280;74938;42.658;23.248;2024-03-23T08:31:28;93974.22;;;15.39;33.10
84714;BME280;74938;42.658;23.248;2024-03-23T08:33:53;93980.66;;;14.66;34.26
84714;BME280;74938;42.658;23.248;2024-03-23T08:36:19;93968.81;;;15.05;32.67
84714;BME280;74938;42.658;23.248;2024-03-23T08:38:44;93970.50;;;14.76;33.26
84714;BME280;74938;42.658;23.248;2024-03-23T08:41:11;93963.81;;;14.15;33.90
84714;BME280;74938;42.658;23.248;2024-03-23T08:43:38;93964.50;;;14.64;33.06
84714;BME280;74938;42.658;23.248;2024-03-23T08:46:08;93960.28;;;14.21;34.01
84714;BME280;74938;42.658;23.248;2024-03-23T08:48:35;93961.53;;;14.72;33.52
84714;BME280;74938;42.658;23.248;2024-03-23T08:51:04;93950.13;;;14.61;33.35
84714;BME280;74938;42.658;23.248;2024-03-23T08:53:30;93946.84;;;14.54;34.96
84714;BME280;74938;42.658;23.248;2024-03-23T08:55:57;93947.28;;;14.51;34.06
84714;BME280;74938;42.658;23.248;2024-03-23T08:58:26;93948.25;;;14.39;33.83
84714;BME280;74938;42.658;23.248;2024-03-23T09:00:53;93945.41;;;14.70;34.68
84714;BME280;74938;42.658;23.248;2024-03-23T09:03:24;93929.78;;;15.05;33.68
84714;BME280;74938;42.658;23.248;2024-03-23T09:05:50;93935.31;;;14.85;33.37
84714;BME280;74938;42.658;23.248;2024-03-23T09:08:16;93934.75;;;14.72;34.03
84714;BME280;74938;42.658;23.248;2024-03-23T09:10:41;93928.53;;;14.84;33.36
84714;BME280;74938;42.658;23.248;2024-03-23T09:13:08;93923.63;;;15.11;33.42
84714;BME280;74938;42.658;23.248;2024-03-23T09:15:45;93925.06;;;15.30;33.45
84714;BME280;74938;42.658;23.248;2024-03-23T09:18:11;93921.94;;;14.93;33.21
84714;BME280;74938;42.658;23.248;2024-03-23T09:20:36;93904.38;;;15.12;33.93
84714;BME280;74938;42.658;23.248;2024-03-23T09:23:01;93911.22;;;14.78;33.19
84714;BME280;74938;42.658;23.248;2024-03-23T09:25:27;93904.81;;;15.32;33.97
84714;BME280;74938;42.658;23.248;2024-03-23T09:27:52;93901.19;;;15.33;33.43
84714;BME280;74938;42.658;23.248;2024-03-23T09:30:17;93897.19;;;15.43;32.55
84714;BME280;74938;42.658;23.248;2024-03-23T09:32:45;93896.25;;;15.20;32.26
84714;BME280;74938;42.658;23.248;2024-03-23T09:35:10;93897.28;;;15.59;32.75
84714;BME280;74938;42.658;23.248;2024-03-23T09:37:36;93891.00;;;15.72;31.44
84714;BME280;74938;42.658;23.248;2024-03-23T09:40:02;93884.00;;;15.21;33.23
84714;BME280;74938;42.658;23.248;2024-03-23T09:42:28;93876.00;;;14.99;32.32
84714;BME280;74938;42.658;23.248;2024-03-23T09:44:54;93877.56;;;15.23;32.50
84714;BME280;74938;42.658;23.248;2024-03-23T09:47:22;93872.66;;;15.27;32.51
84714;BME280;74938;42.658;23.248;2024-03-23T09:49:47;93869.75;;;15.12;32.29
84714;BME280;74938;42.658;23.248;2024-03-23T09:52:12;93856.13;;;15.33;33.03
84714;BME280;74938;42.658;23.248;2024-03-23T09:54:38;93862.06;;;15.45;33.18
84714;BME280;74938;42.658;23.248;2024-03-23T09:57:06;93861.78;;;15.70;31.75
84714;BME280;74938;42.658;23.248;2024-03-23T09:59:32;93864.38;;;15.70;31.66
84714;BME280;74938;42.658;23.248;2024-03-23T10:01:58;93852.03;;;15.37;31.82
84714;BME280;74938;42.658;23.248;2024-03-23T10:04:39;93851.16;;;15.31;30.96
84714;BME280;74938;42.658;23.248;2024-03-23T10:07:15;93844.97;;;15.09;31.97
84714;BME280;74938;42.658;23.248;2024-03-23T10:09:44;93837.38;;;15.19;31.00
84714;BME280;74938;42.658;23.248;2024-03-23T10:12:15;93838.06;;;15.43;32.00
84714;BME280;74938;42.658;23.248;2024-03-23T10:14:41;93832.47;;;15.35;31.03
84714;BME280;74938;42.658;23.248;2024-03-23T10:17:21;93825.00;;;15.55;31.21
84714;BME280;74938;42.658;23.248;2024-03-23T10:19:51;93831.38;;;15.47;31.16
84714;BME280;74938;42.658;23.248;2024-03-23T10:22:18;93825.22;;;15.37;29.72
84714;BME280;74938;42.658;23.248;2024-03-23T10:24:44;93819.44;;;15.06;30.47
84714;BME280;74938;42.658;23.248;2024-03-23T10:27:15;93803.81;;;15.06;31.35
84714;BME280;74938;42.658;23.248;2024-03-23T10:29:40;93811.63;;;15.06;31.45
84714;BME280;74938;42.658;23.248;2024-03-23T10:32:10;93809.44;;;15.15;30.97
84714;BME280;74938;42.658;23.248;2024-03-23T10:34:37;93808.75;;;14.68;31.92
84714;BME280;74938;42.658;23.248;2024-03-23T10:37:03;93799.03;;;14.63;31.71
84714;BME280;74938;42.658;23.248;2024-03-23T10:39:33;93797.25;;;14.92;31.56
84714;BME280;74938;42.658;23.248;2024-03-23T10:42:03;93791.38;;;15.25;30.83
84714;BME280;74938;42.658;23.248;2024-03-23T10:44:29;93782.59;;;15.43;31.97
84714;BME280;74938;42.658;23.248;2024-03-23T10:46:59;93776.56;;;15.25;31.78
84714;BME280;74938;42.658;23.248;2024-03-23T10:49:29;93781.22;;;15.23;32.61
84714;BME280;74938;42.658;23.248;2024-03-23T10:52:04;93772.63;;;15.23;31.00
84714;BME280;74938;42.658;23.248;2024-03-23T10:54:31;93763.91;;;15.17;30.86
84714;BME280;74938;42.658;23.248;2024-03-23T10:57:07;93762.34;;;14.76;31.38
84714;BME280;74938;42.658;23.248;2024-03-23T10:59:39;93761.38;;;15.06;31.35
84714;BME280;74938;42.658;23.248;2024-03-23T11:02:05;93748.25;;;15.29;32.61
84714;BME280;74938;42.658;23.248;2024-03-23T11:04:35;93736.09;;;15.35;32.09
84714;BME280;74938;42.658;23.248;2024-03-23T11:07:01;93738.50;;;15.24;32.18
84714;BME280;74938;42.658;23.248;2024-03-23T11:09:43;93730.59;;;15.48;29.90
84714;BME280;74938;42.658;23.248;2024-03-23T11:17:40;93714.91;;;15.59;28.99
84714;BME280;74938;42.658;23.248;2024-03-23T11:20:06;93713.34;;;15.75;29.75
84714;BME280;74938;42.658;23.248;2024-03-23T11:25:02;93713.56;;;16.29;29.12
84714;BME280;74938;42.658;23.248;2024-03-23T11:27:28;93701.31;;;16.29;26.99
84714;BME280;74938;42.658;23.248;2024-03-23T11:29:53;93703.41;;;16.27;26.50
84714;BME280;74938;42.658;23.248;2024-03-23T11:32:18;93702.06;;;16.25;27.94
84714;BME280;74938;42.658;23.248;2024-03-23T11:34:44;93696.56;;;16.43;26.90
84714;BME280;74938;42.658;23.248;2024-03-23T11:37:09;93695.09;;;16.52;25.73
84714;BME280;74938;42.658;23.248;2024-03-23T11:39:35;93697.16;;;16.50;25.93
84714;BME280;74938;42.658;23.248;2024-03-23T11:42:00;93682.66;;;16.38;26.74
84714;BME280;74938;42.658;23.248;2024-03-23T11:44:26;93682.59;;;16.32;26.78
84714;BME280;74938;42.658;23.248;2024-03-23T11:46:52;93677.06;;;16.29;25.80
84714;BME280;74938;42.658;23.248;2024-03-23T11:49:28;93671.84;;;16.29;27.19
84714;BME280;74938;42.658;23.248;2024-03-23T11:51:56;93662.44;;;16.28;26.69
84714;BME280;74938;42.658;23.248;2024-03-23T11:54:26;93651.91;;;16.61;25.98
84714;BME280;74938;42.658;23.248;2024-03-23T11:56:59;93655.34;;;16.45;24.22
84714;BME280;74938;42.658;23.248;2024-03-23T12:01:56;93634.78;;;16.70;24.14
84714;BME280;74938;42.658;23.248;2024-03-23T12:04:26;93627.31;;;16.79;23.42
84714;BME280;74938;42.658;23.248;2024-03-23T12:07:09;93628.63;;;16.82;23.34
84714;BME280;74938;42.658;23.248;2024-03-23T12:09:34;93622.34;;;16.78;22.28
84714;BME280;74938;42.658;23.248;2024-03-23T12:12:08;93623.75;;;16.63;22.87
84714;BME280;74938;42.658;23.248;2024-03-23T12:14:34;93611.44;;;16.86;23.80
84714;BME280;74938;42.658;23.248;2024-03-23T12:17:10;93610.59;;;16.80;23.57
84714;BME280;74938;42.658;23.248;2024-03-23T12:19:35;93611.09;;;17.04;22.74
84714;BME280;74938;42.658;23.248;2024-03-23T12:22:03;93613.53;;;17.16;23.20
84714;BME280;74938;42.658;23.248;2024-03-23T12:24:29;93602.38;;;17.25;21.97
84714;BME280;74938;42.658;23.248;2024-03-23T12:26:54;93607.91;;;16.97;22.37
84714;BME280;74938;42.658;23.248;2024-03-23T12:29:20;93596.47;;;17.03;22.03
84714;BME280;74938;42.658;23.248;2024-03-23T12:31:45;93597.06;;;17.10;22.02
84714;BME280;74938;42.658;23.248;2024-03-23T12:34:11;93592.25;;;17.34;21.81
84714;BME280;74938;42.658;23.248;2024-03-23T12:36:37;93582.59;;;17.34;22.48
84714;BME280;74938;42.658;23.248;2024-03-23T12:39:02;93590.63;;;17.23;23.00
84714;BME280;74938;42.658;23.248;2024-03-23T12:41:27;93583.44;;;17.08;22.64
84714;BME280;74938;42.658;23.248;2024-03-23T12:43:53;93570.22;;;16.88;22.71
84714;BME280;74938;42.658;23.248;2024-03-23T12:46:18;93573.19;;;17.33;21.96
84714;BME280;74938;42.658;23.248;2024-03-23T12:48:46;93575.47;;;17.25;22.99
84714;BME280;74938;42.658;23.248;2024-03-23T12:51:12;93570.94;;;17.10;21.78
84714;BME280;74938;42.658;23.248;2024-03-23T12:53:37;93573.84;;;17.14;22.35
84714;BME280;74938;42.658;23.248;2024-03-23T12:56:03;93555.53;;;17.09;23.36
84714;BME280;74938;42.658;23.248;2024-03-23T12:58:28;93559.06;;;17.29;22.63
84714;BME280;74938;42.658;23.248;2024-03-23T13:00:54;93550.91;;;17.21;21.78
84714;BME280;74938;42.658;23.248;2024-03-23T13:03:19;93552.44;;;17.17;22.75
84714;BME280;74938;42.658;23.248;2024-03-23T13:05:51;93553.59;;;17.31;22.64
84714;BME280;74938;42.658;23.248;2024-03-23T13:08:17;93546.16;;;17.18;22.10
84714;BME280;74938;42.658;23.248;2024-03-23T13:10:42;93543.06;;;17.21;22.67
84714;BME280;74938;42.658;23.248;2024-03-23T13:13:08;93537.69;;;17.37;20.62
84714;BME280;74938;42.658;23.248;2024-03-23T13:15:33;93540.75;;;17.24;22.26
84714;BME280;74938;42.658;23.248;2024-03-23T13:17:59;93537.91;;;17.31;22.12
84714;BME280;74938;42.658;23.248;2024-03-23T13:20:24;93520.44;;;17.36;22.20
84714;BME280;74938;42.658;23.248;2024-03-23T13:22:49;93523.09;;;17.42;21.64
84714;BME280;74938;42.658;23.248;2024-03-23T13:25:17;93530.81;;;17.68;22.34
84714;BME280;74938;42.658;23.248;2024-03-23T13:27:44;93523.69;;;17.59;22.09
84714;BME280;74938;42.658;23.248;2024-03-23T13:30:09;93525.28;;;17.60;22.10
84714;BME280;74938;42.658;23.248;2024-03-23T13:32:35;93522.41;;;17.61;22.64
84714;BME280;74938;42.658;23.248;2024-03-23T13:35:00;93516.63;;;17.54;23.12
84714;BME280;74938;42.658;23.248;2024-03-23T13:37:26;93513.75;;;17.56;22.51
84714;BME280;74938;42.658;23.248;2024-03-23T13:39:52;93511.09;;;17.51;23.12
84714;BME280;74938;42.658;23.248;2024-03-23T13:42:17;93507.50;;;17.57;22.49
84714;BME280;74938;42.658;23.248;2024-03-23T13:44:43;93499.84;;;17.45;22.76
84714;BME280;74938;42.658;23.248;2024-03-23T13:47:08;93497.53;;;17.49;23.09
84714;BME280;74938;42.658;23.248;2024-03-23T13:49:34;93497.00;;;17.52;23.30
84714;BME280;74938;42.658;23.248;2024-03-23T13:51:59;93492.09;;;17.60;23.00
84714;BME280;74938;42.658;23.248;2024-03-23T13:54:26;93494.94;;;17.54;22.58